Mesa CRJ9 at Kansas City on Aug 15th 2012, tail struck runway light on landing

Last Update: August 16, 2012 / 16:55:17 GMT/Zulu time

Bookmark this article
Incident Facts

Date of incident
Aug 15, 2012

Classification
Incident

Flight number
YV-2792

Aircraft Registration
N923FJ

ICAO Type Designator
CRJ9

A Mesa Airlines Canadair CRJ-900 on behalf of US Airways, registration N923FJ performing flight YV-2792/US-2792 from Phoenix,AZ to Kansas City,MO (USA), landed on Kansas City's runway 19R but its tail struck a runway light at about 16:57L (21:57Z). The aircraft rolled out without further incident.

The FAA reported the damage needs to be assessed.



Metars:
KMCI 152353Z 19012KT 10SM CLR 33/17 A2979 RMK AO2 SLP076 T03330172 10350 20311 58010
KMCI 152253Z 19012KT 10SM FEW060 34/17 A2980 RMK AO2 SLP079 T03440172
KMCI 152153Z 19010G18KT 10SM FEW060 34/17 A2981 RMK AO2 SLP084 T03440172
KMCI 152053Z 17010G21KT 130V200 10SM CLR 34/17 A2982 RMK AO2 SLP086 T03440172 56024
KMCI 151953Z 17014G19KT 10SM CLR 34/17 A2984 RMK AO2 SLP094 T03390167
KMCI 151853Z 18012G20KT 10SM CLR 33/16 A2986 RMK AO2 SLP103 T03280161
KMCI 151753Z 20011G14KT 10SM CLR 31/16 A2989 RMK AO2 SLP112 T03110156 10311 20150 58014
Aircraft Registration Data
Registration mark
N923FJ
Country of Registration
United States
Date of Registration
I eigqqm gA dhecq Subscribe to unlock
Manufacturer
BOMBARDIER INC
Aircraft Model / Type
CL-600-2D24
Number of Seats
ICAO Aircraft Type
CRJ9
Year of Manufacture
Serial Number
Aircraft Address / Mode S Code (HEX)
Engine Count
Engine Manufacturer
Engine Model
Engine Type
Pounds of Thrust
Main Owner
Acmnni AqcjiiklAbhfhppleecfhgkqkcclkflpAbmfeqpmkcmmelibbk dhgdbfhiiecgjmfi Agbqfcp fmifc cppngpbghekqpllgbh Subscribe to unlock
Incident Facts

Date of incident
Aug 15, 2012

Classification
Incident

Flight number
YV-2792

Aircraft Registration
N923FJ

ICAO Type Designator
CRJ9

This article is published under license from Avherald.com. © of text by Avherald.com.
Article source

You can read 2 more free articles without a subscription.

Subscribe now and continue reading without any limits!

Are you a subscriber? Login
Subscribe

Read unlimited articles and receive our daily update briefing. Gain better insights into what is happening in commercial aviation safety.

Send tip

Support AeroInside by sending a small tip amount.

Related articles

Newest articles

Subscribe today

Are you researching aviation incidents? Get access to AeroInside Insights, unlimited read access and receive the daily newsletter.

Pick your plan and subscribe

Partner

Blockaviation logo

A new way to document and demonstrate airworthiness compliance and aircraft value. Find out more.

ELITE Logo

ELITE Simulation Solutions is a leading global provider of Flight Simulation Training Devices, IFR training software as well as flight controls and related services. Find out more.

Blue Altitude Logo

Your regulation partner, specialists in aviation safety and compliance; providing training, auditing, and consultancy services. Find out more.

AeroInside Blog
Popular aircraft
Airbus A320
Boeing 737-800
Boeing 737-800 MAX
Popular airlines
American Airlines
United
Delta
Air Canada
Lufthansa
British Airways